Аэропорт: Магнитогорск. Магнитогорск

ICAO: USCM

METAR:
2021-07-28 12:30:00
USCM 281230Z 29005MPS 9999 BKN040 22/04 Q1011 R18/090060 TEMPO 30012MPS RMK QFE721
METAR:
Информация по данной станции не доступна